createdAt,value
2023-02-16T00:00:32.150Z,33.58
2023-02-16T00:03:02.290Z,38.80
2023-02-16T00:05:36.703Z,28.65
2023-02-16T00:08:06.835Z,35.70
2023-02-16T00:10:39.103Z,27.88
2023-02-16T00:13:37.276Z,35.20
2023-02-16T00:16:08.129Z,39.65
2023-02-16T00:18:38.133Z,41.35
2023-02-16T00:21:10.934Z,38.80
2023-02-16T00:23:41.808Z,39.55
2023-02-16T00:26:18.032Z,38.97
2023-02-16T00:28:48.393Z,28.23
2023-02-16T00:31:21.374Z,38.83
2023-02-16T00:33:51.917Z,34.05
2023-02-16T00:36:24.594Z,37.95
2023-02-16T00:38:54.821Z,41.40
2023-02-16T00:41:39.704Z,42.15
2023-02-16T00:44:15.737Z,36.50
2023-02-16T00:46:46.676Z,38.47
2023-02-16T00:49:17.752Z,39.40
2023-02-16T00:51:51.007Z,41.40
2023-02-16T00:54:21.097Z,38.28
2023-02-16T00:56:53.304Z,48.40
2023-02-16T00:59:25.873Z,40.10
2023-02-16T01:01:57.624Z,36.33
2023-02-16T01:04:27.870Z,36.95
2023-02-16T01:07:12.963Z,39.83
2023-02-16T01:09:55.410Z,40.63
2023-02-16T01:12:25.753Z,39.72
2023-02-16T01:14:58.376Z,44.35
2023-02-16T01:17:28.702Z,41.25
2023-02-16T01:19:58.722Z,43.78
2023-02-16T01:22:33.588Z,45.22
2023-02-16T01:25:03.660Z,40.35
2023-02-16T01:27:34.465Z,40.40
2023-02-16T01:30:04.766Z,41.13
2023-02-16T01:32:35.177Z,37.83
2023-02-16T01:35:05.324Z,39.38
2023-02-16T01:37:38.050Z,39.80
2023-02-16T01:40:08.698Z,43.13
2023-02-16T01:42:44.005Z,42.50
2023-02-16T01:45:18.640Z,40.50
2023-02-16T01:47:52.871Z,37.72
2023-02-16T01:50:26.022Z,38.22
2023-02-16T01:53:01.945Z,39.95
2023-02-16T01:55:35.692Z,44.50
2023-02-16T01:58:12.175Z,43.60
2023-02-16T02:01:11.984Z,37.30
2023-02-16T02:03:54.893Z,45.85
2023-02-16T02:06:31.237Z,40.83
2023-02-16T02:09:09.077Z,42.35
2023-02-16T02:14:16.472Z,42.78
2023-02-16T02:16:58.576Z,43.10
2023-02-16T02:19:28.882Z,39.55
2023-02-16T02:22:33.485Z,44.28
2023-02-16T02:25:40.668Z,43.75
2023-02-16T02:28:17.099Z,41.28
2023-02-16T02:30:52.645Z,42.35
2023-02-16T02:33:44.785Z,37.83
2023-02-16T02:36:25.367Z,41.70
2023-02-16T02:39:14.027Z,43.30
2023-02-16T02:42:09.362Z,41.67
2023-02-16T02:44:46.516Z,40.38
2023-02-16T02:47:16.837Z,41.28
2023-02-16T02:49:53.294Z,43.40
2023-02-16T02:52:25.321Z,43.38
2023-02-16T02:55:07.807Z,44.30
2023-02-16T02:57:54.700Z,41.17
2023-02-16T03:00:43.411Z,45.63
2023-02-16T03:03:17.570Z,45.83
2023-02-16T03:05:51.361Z,45.65
2023-02-16T03:08:25.244Z,43.53
2023-02-16T03:11:10.920Z,39.92
2023-02-16T03:13:43.605Z,40.75
2023-02-16T03:16:19.870Z,42.08
2023-02-16T03:19:03.373Z,46.67
2023-02-16T03:21:47.009Z,38.10
2023-02-16T03:24:37.937Z,43.58
2023-02-16T03:29:52.972Z,38.60
2023-02-16T03:32:25.892Z,28.88
2023-02-16T03:34:56.104Z,39.92
2023-02-16T03:37:26.281Z,42.42
2023-02-16T03:40:09.431Z,36.92
2023-02-16T03:42:39.448Z,36.15
2023-02-16T03:45:10.970Z,39.83
2023-02-16T03:47:43.590Z,40.95
2023-02-16T03:50:14.039Z,26.80
2023-02-16T03:52:44.002Z,43.17
2023-02-16T03:55:14.361Z,41.38
2023-02-16T03:57:44.556Z,37.22
2023-02-16T04:00:15.839Z,40.25
2023-02-16T04:05:18.534Z,36.92
2023-02-16T04:07:48.524Z,36.13
2023-02-16T04:10:19.050Z,31.30
2023-02-16T04:12:46.630Z,32.60
2023-02-16T04:15:19.507Z,36.30
2023-02-16T04:17:52.511Z,35.65
2023-02-16T04:20:24.299Z,38.65
2023-02-16T04:22:54.775Z,41.55
2023-02-16T04:25:25.498Z,38.78
2023-02-16T04:27:56.268Z,35.47
2023-02-16T04:30:28.598Z,40.72
2023-02-16T04:33:01.684Z,35.33
2023-02-16T04:35:31.995Z,40.65
2023-02-16T04:38:02.083Z,34.80
2023-02-16T04:40:32.338Z,40.92
2023-02-16T04:43:02.351Z,40.22
2023-02-16T04:45:32.855Z,36.58
2023-02-16T04:48:05.520Z,36.95
2023-02-16T04:50:35.772Z,34.63
2023-02-16T04:53:05.830Z,42.05
2023-02-16T04:55:36.189Z,38.08
2023-02-16T04:58:06.410Z,33.67
2023-02-16T05:00:36.817Z,35.15
2023-02-16T05:03:09.519Z,39.90
2023-02-16T05:05:39.598Z,39.40
2023-02-16T05:08:09.882Z,37.65
2023-02-16T05:10:40.004Z,39.30
2023-02-16T05:13:22.440Z,35.30
2023-02-16T05:15:53.097Z,39.25
2023-02-16T05:18:25.798Z,39.88
2023-02-16T05:21:20.650Z,44.78
2023-02-16T05:23:50.757Z,37.92
2023-02-16T05:26:20.943Z,36.50
2023-02-16T05:28:51.049Z,34.45
2023-02-16T05:31:21.323Z,36.78
2023-02-16T05:33:54.304Z,38.10
2023-02-16T05:36:25.106Z,38.55
2023-02-16T05:38:55.238Z,35.35
2023-02-16T05:41:28.061Z,37.03
2023-02-16T05:43:59.693Z,40.45
2023-02-16T05:46:32.086Z,34.90
2023-02-16T05:49:05.328Z,37.95
2023-02-16T05:51:36.316Z,37.80
2023-02-16T05:54:06.557Z,33.90
2023-02-16T05:56:37.164Z,37.55
2023-02-16T05:59:07.337Z,38.58
2023-02-16T06:01:40.869Z,34.45
2023-02-16T06:04:15.863Z,37.35
2023-02-16T06:06:46.983Z,35.58
2023-02-16T06:09:17.346Z,30.60
2023-02-16T06:11:47.641Z,27.98
2023-02-16T06:14:19.737Z,32.42
2023-02-16T06:16:52.430Z,33.22
2023-02-16T06:19:25.246Z,30.95
2023-02-16T06:21:56.977Z,32.03
2023-02-16T06:24:27.334Z,37.88
2023-02-16T06:26:57.537Z,35.13
2023-02-16T06:29:28.155Z,31.05
2023-02-16T06:31:58.583Z,32.65
2023-02-16T06:34:31.516Z,31.08
2023-02-16T06:37:01.588Z,31.90
2023-02-16T06:39:31.869Z,38.65
2023-02-16T06:42:02.238Z,31.20
2023-02-16T06:44:32.387Z,34.20
2023-02-16T06:47:02.901Z,34.92
2023-02-16T06:49:35.800Z,31.98
2023-02-16T06:52:06.155Z,33.10
2023-02-16T06:54:36.276Z,30.35
2023-02-16T06:57:06.547Z,33.03
2023-02-16T06:59:36.630Z,33.78
2023-02-16T07:02:06.821Z,34.67
2023-02-16T07:04:39.588Z,29.90
2023-02-16T07:07:09.690Z,29.58
2023-02-16T07:09:39.870Z,30.98
2023-02-16T07:12:10.589Z,30.33
2023-02-16T07:14:43.128Z,31.67
2023-02-16T07:17:14.204Z,34.80
2023-02-16T07:19:46.879Z,29.42
2023-02-16T07:22:17.708Z,32.65
2023-02-16T07:24:47.915Z,29.42
2023-02-16T07:27:18.234Z,27.30
2023-02-16T07:29:48.288Z,25.70
2023-02-16T07:32:18.596Z,26.70
2023-02-16T07:34:51.336Z,34.47
2023-02-16T07:37:21.550Z,28.98
2023-02-16T07:39:53.132Z,28.08
2023-02-16T07:42:23.671Z,30.20
2023-02-16T07:44:53.905Z,32.55
2023-02-16T07:47:24.071Z,30.42
2023-02-16T07:49:56.785Z,32.42
2023-02-16T07:52:31.390Z,33.40
2023-02-16T07:55:01.831Z,30.60
2023-02-16T07:57:32.361Z,34.50
2023-02-16T08:00:02.850Z,33.22
2023-02-16T08:02:33.260Z,30.95
2023-02-16T08:05:06.122Z,33.38
2023-02-16T08:07:36.364Z,31.38
2023-02-16T08:10:07.015Z,31.88
2023-02-16T08:12:37.428Z,28.17
2023-02-16T08:15:10.767Z,31.02
2023-02-16T08:17:41.375Z,34.53
2023-02-16T08:20:15.247Z,31.48
2023-02-16T08:22:45.354Z,31.73
2023-02-16T08:25:16.266Z,33.35
2023-02-16T08:27:46.443Z,28.40
2023-02-16T08:30:18.511Z,30.10
2023-02-16T08:32:50.999Z,32.17
2023-02-16T08:35:23.765Z,31.58
2023-02-16T08:37:54.958Z,32.10
2023-02-16T08:40:26.287Z,32.55
2023-02-16T08:42:56.399Z,33.90
2023-02-16T08:45:27.079Z,32.05
2023-02-16T08:47:57.798Z,29.35
2023-02-16T08:50:30.592Z,35.20
2023-02-16T08:53:02.640Z,28.42
2023-02-16T08:55:36.134Z,34.78
2023-02-16T08:58:06.640Z,33.97
2023-02-16T09:00:38.758Z,38.22
2023-02-16T09:03:09.084Z,32.85
2023-02-16T09:05:42.153Z,33.15
2023-02-16T09:08:12.721Z,32.22
2023-02-16T09:10:46.364Z,34.63
2023-02-16T09:13:17.107Z,35.50
2023-02-16T09:15:55.950Z,41.20
2023-02-16T09:18:26.662Z,37.00
2023-02-16T09:21:01.039Z,33.08
2023-02-16T09:23:31.336Z,32.47
2023-02-16T09:26:03.424Z,36.97
2023-02-16T09:28:33.886Z,33.38
2023-02-16T09:31:04.390Z,33.08
2023-02-16T09:33:35.090Z,34.65
2023-02-16T09:36:11.320Z,33.35
2023-02-16T09:38:47.610Z,33.33
2023-02-16T09:41:25.999Z,34.80
2023-02-16T09:44:01.152Z,35.92
2023-02-16T09:46:33.453Z,33.47
2023-02-16T09:49:06.665Z,35.67
2023-02-16T09:51:41.949Z,33.35
2023-02-16T09:54:23.120Z,35.83
2023-02-16T09:56:59.707Z,32.55
2023-02-16T09:59:43.261Z,35.15
2023-02-16T10:02:31.544Z,34.38
2023-02-16T10:05:22.178Z,37.38
2023-02-16T10:08:04.813Z,30.70
2023-02-16T10:10:42.589Z,34.28
2023-02-16T10:15:48.636Z,35.70
2023-02-16T10:18:24.325Z,33.72
2023-02-16T10:20:58.151Z,32.72
2023-02-16T10:23:43.472Z,32.60
2023-02-16T10:26:20.226Z,24.42
2023-02-16T10:28:52.313Z,34.15
2023-02-16T10:31:29.611Z,37.13
2023-02-16T10:34:09.063Z,30.08
2023-02-16T10:36:48.086Z,33.88
2023-02-16T10:39:27.894Z,32.78
2023-02-16T10:42:05.176Z,37.53
2023-02-16T10:44:40.436Z,30.77
2023-02-16T10:47:23.369Z,29.98
2023-02-16T10:49:54.843Z,28.95
2023-02-16T10:52:26.190Z,33.63
2023-02-16T10:54:59.328Z,30.98
2023-02-16T10:57:32.985Z,26.58
2023-02-16T11:00:07.011Z,27.30
2023-02-16T11:02:41.736Z,28.10
2023-02-16T11:05:36.544Z,27.15
2023-02-16T11:08:07.814Z,27.00
2023-02-16T11:10:49.079Z,29.85
2023-02-16T11:13:32.649Z,31.15
2023-02-16T11:16:07.732Z,30.95
2023-02-16T11:18:40.982Z,28.92
2023-02-16T11:21:13.501Z,29.25
2023-02-16T11:23:45.143Z,25.45
2023-02-16T11:26:29.037Z,28.48
2023-02-16T11:29:10.841Z,26.70
2023-02-16T11:31:42.551Z,26.75
2023-02-16T11:34:18.463Z,25.33
2023-02-16T11:36:50.268Z,24.60
2023-02-16T11:39:24.889Z,25.15
2023-02-16T11:42:00.509Z,21.63
2023-02-16T11:44:34.610Z,26.85
2023-02-16T11:47:08.062Z,27.05
2023-02-16T11:49:40.117Z,26.25
2023-02-16T11:52:29.340Z,23.73
2023-02-16T11:55:02.699Z,25.70
2023-02-16T11:57:38.196Z,27.08
2023-02-16T12:00:22.067Z,24.55
2023-02-16T12:03:17.254Z,25.05
2023-02-16T12:05:57.586Z,22.48
2023-02-16T12:08:38.662Z,23.90
2023-02-16T12:11:20.330Z,25.13
2023-02-16T12:14:03.410Z,20.85
2023-02-16T12:16:40.148Z,24.38
2023-02-16T12:19:21.358Z,24.77
2023-02-16T12:21:54.693Z,21.27
2023-02-16T12:24:38.140Z,23.98
2023-02-16T12:27:15.913Z,23.17
2023-02-16T12:29:56.610Z,21.48
2023-02-16T12:32:51.402Z,21.83
2023-02-16T12:35:44.120Z,22.80
2023-02-16T12:38:28.861Z,18.40
2023-02-16T12:41:07.832Z,21.80
2023-02-16T12:43:42.521Z,22.45
2023-02-16T12:46:22.442Z,30.27
2023-02-16T12:48:57.202Z,22.75
2023-02-16T12:51:31.393Z,16.05
2023-02-16T12:54:10.541Z,18.98
2023-02-16T12:56:45.226Z,22.70
2023-02-16T12:59:22.907Z,21.38
2023-02-16T13:01:58.948Z,17.77
2023-02-16T13:04:40.487Z,19.00
2023-02-16T13:07:18.842Z,22.52
2023-02-16T13:09:57.815Z,19.65
2023-02-16T13:12:33.386Z,21.73
2023-02-16T13:15:15.493Z,20.13
2023-02-16T13:17:52.384Z,21.45
2023-02-16T13:20:24.445Z,21.75
2023-02-16T13:23:14.430Z,20.70
2023-02-16T13:26:11.396Z,24.15
2023-02-16T13:28:58.844Z,19.70
2023-02-16T13:31:40.374Z,17.63
2023-02-16T13:34:39.164Z,18.45
2023-02-16T13:37:28.976Z,19.80
2023-02-16T13:40:28.006Z,17.90
2023-02-16T13:43:09.049Z,24.90
2023-02-16T13:45:43.991Z,16.38
2023-02-16T13:48:23.898Z,19.75
2023-02-16T13:51:04.049Z,18.67
2023-02-16T13:53:38.724Z,21.88
2023-02-16T13:56:22.115Z,16.40
2023-02-16T13:58:53.029Z,22.17
2023-02-16T14:04:15.985Z,21.38
2023-02-16T14:06:48.709Z,24.38
2023-02-16T14:09:39.211Z,16.80
2023-02-16T14:15:03.768Z,17.60
2023-02-16T14:17:36.585Z,17.27
2023-02-16T14:20:27.426Z,18.27
2023-02-16T14:23:01.379Z,14.50
2023-02-16T14:25:41.486Z,15.57
2023-02-16T14:28:48.054Z,13.45
2023-02-16T14:31:23.128Z,17.42
2023-02-16T14:34:10.446Z,19.15
2023-02-16T14:37:24.337Z,17.45
2023-02-16T14:40:07.938Z,17.27
2023-02-16T14:42:39.809Z,16.02
2023-02-16T14:45:30.517Z,18.90
2023-02-16T14:48:17.828Z,19.85
2023-02-16T14:51:03.569Z,19.20
2023-02-16T14:54:11.511Z,18.90
2023-02-16T14:56:47.956Z,16.13
2023-02-16T14:59:35.134Z,20.58
2023-02-16T15:02:30.150Z,13.60
2023-02-16T15:05:01.128Z,16.27
2023-02-16T15:10:02.383Z,16.33
2023-02-16T15:12:37.335Z,20.08
2023-02-16T15:15:10.656Z,16.05
2023-02-16T15:17:45.036Z,16.73
2023-02-16T15:20:25.027Z,19.67
2023-02-16T15:22:57.873Z,20.50
2023-02-16T15:25:32.745Z,19.95
2023-02-16T15:28:18.677Z,17.63
2023-02-16T15:30:52.442Z,19.83
2023-02-16T15:33:38.825Z,17.25
2023-02-16T15:36:13.555Z,20.05
2023-02-16T15:38:46.428Z,15.68
2023-02-16T15:41:18.609Z,19.35
2023-02-16T15:43:53.775Z,17.77
2023-02-16T15:46:29.006Z,17.27
2023-02-16T15:48:59.385Z,20.40
2023-02-16T15:51:32.500Z,17.33
2023-02-16T15:54:04.917Z,17.70
2023-02-16T15:56:42.412Z,15.77
2023-02-16T15:59:32.914Z,17.88
2023-02-16T16:02:13.472Z,16.77
2023-02-16T16:04:45.778Z,19.88
2023-02-16T16:07:18.057Z,19.67
2023-02-16T16:09:49.250Z,16.15
2023-02-16T16:12:22.059Z,22.63
2023-02-16T16:14:58.501Z,16.48
2023-02-16T16:17:32.063Z,15.65
2023-02-16T16:20:19.877Z,18.10
2023-02-16T16:22:50.168Z,12.75
2023-02-16T16:25:43.455Z,16.10
2023-02-16T16:28:17.643Z,12.32
2023-02-16T16:30:50.435Z,16.63
2023-02-16T16:33:20.636Z,13.07
2023-02-16T16:35:52.638Z,17.15
2023-02-16T16:38:27.836Z,21.40
2023-02-16T16:41:00.527Z,19.48
2023-02-16T16:43:32.414Z,17.27
2023-02-16T16:46:21.846Z,15.30
2023-02-16T16:48:55.181Z,19.10
2023-02-16T16:51:40.857Z,19.95
2023-02-16T16:54:14.585Z,17.60
2023-02-16T16:56:45.108Z,16.30
2023-02-16T16:59:15.433Z,18.08
2023-02-16T17:01:50.688Z,16.27
2023-02-16T17:04:22.345Z,19.02
2023-02-16T17:06:52.606Z,18.70
2023-02-16T17:09:23.693Z,16.13
2023-02-16T17:14:29.819Z,17.98
2023-02-16T17:17:02.558Z,22.92
2023-02-16T17:19:33.149Z,20.45
2023-02-16T17:22:04.221Z,19.42
2023-02-16T17:27:04.300Z,16.48
2023-02-16T17:29:34.716Z,17.55
2023-02-16T17:32:08.249Z,22.13
2023-02-16T17:34:38.722Z,20.05
2023-02-16T17:37:10.266Z,20.42
2023-02-16T17:39:40.398Z,19.80
2023-02-16T17:42:16.723Z,15.50
2023-02-16T17:44:47.071Z,17.95
2023-02-16T17:47:20.341Z,15.05
2023-02-16T17:49:50.407Z,13.23
2023-02-16T17:52:20.494Z,17.88
2023-02-16T17:54:50.632Z,20.83
2023-02-16T17:57:21.293Z,15.10
2023-02-16T17:59:54.386Z,18.02
2023-02-16T18:02:29.454Z,17.17
2023-02-16T18:04:59.577Z,18.85
2023-02-16T18:07:30.324Z,17.25
2023-02-16T18:10:00.664Z,18.25
2023-02-16T18:12:30.844Z,17.50
2023-02-16T18:15:00.873Z,23.20
2023-02-16T18:17:33.717Z,19.85
2023-02-16T18:20:04.543Z,19.17
2023-02-16T18:22:34.679Z,17.45
2023-02-16T18:25:04.850Z,21.80
2023-02-16T18:27:34.929Z,21.98
2023-02-16T18:30:05.341Z,19.48
2023-02-16T18:32:38.079Z,15.90
2023-02-16T18:35:09.039Z,20.85
2023-02-16T18:37:39.590Z,23.52
2023-02-16T18:40:13.800Z,19.48
2023-02-16T18:42:44.306Z,19.88
2023-02-16T18:45:14.809Z,20.05
2023-02-16T18:47:47.712Z,21.63
2023-02-16T18:50:17.989Z,18.67
2023-02-16T18:52:48.289Z,23.38
2023-02-16T18:55:18.961Z,20.05
2023-02-16T18:57:49.289Z,18.50
2023-02-16T19:00:21.958Z,20.48
2023-02-16T19:02:55.404Z,16.27
2023-02-16T19:05:25.989Z,18.92
2023-02-16T19:07:56.092Z,21.75
2023-02-16T19:10:26.705Z,23.45
2023-02-16T19:12:56.828Z,21.50
2023-02-16T19:15:27.186Z,24.45
2023-02-16T19:17:59.935Z,24.98
2023-02-16T19:20:31.016Z,27.45
2023-02-16T19:25:31.488Z,19.95
2023-02-16T19:28:01.762Z,28.35
2023-02-16T19:30:32.012Z,32.67
2023-02-16T19:33:04.832Z,22.27
2023-02-16T19:35:35.381Z,21.35
2023-02-16T19:38:05.503Z,26.02
2023-02-16T19:40:35.712Z,19.90
2023-02-16T19:43:06.006Z,21.60
2023-02-16T19:45:41.512Z,20.30
2023-02-16T19:48:14.160Z,17.80
2023-02-16T19:50:44.575Z,17.92
2023-02-16T19:53:14.686Z,15.80
2023-02-16T19:55:45.663Z,15.75
2023-02-16T19:58:15.744Z,15.55
2023-02-16T20:00:46.137Z,16.92
2023-02-16T20:03:19.318Z,18.23
2023-02-16T20:05:49.711Z,15.57
2023-02-16T20:08:20.308Z,17.00
2023-02-16T20:10:50.926Z,14.07
2023-02-16T20:13:20.988Z,13.15
2023-02-16T20:15:53.955Z,14.00
2023-02-16T20:18:26.678Z,13.93
2023-02-16T20:21:01.932Z,13.70
2023-02-16T20:23:32.709Z,15.18
2023-02-16T20:26:03.440Z,12.65
2023-02-16T20:28:33.859Z,12.45
2023-02-16T20:31:04.723Z,11.25
2023-02-16T20:33:40.017Z,13.32
2023-02-16T20:36:10.589Z,12.38
2023-02-16T20:38:41.675Z,12.63
2023-02-16T20:43:42.049Z,13.38
2023-02-16T20:46:14.262Z,11.45
2023-02-16T20:48:50.118Z,9.55
2023-02-16T20:51:22.464Z,11.55
2023-02-16T20:53:53.075Z,7.68
2023-02-16T20:56:25.736Z,6.63
2023-02-16T20:58:57.442Z,9.80
2023-02-16T21:01:29.476Z,7.75
2023-02-16T21:04:03.414Z,6.85
2023-02-16T21:06:33.685Z,6.95
2023-02-16T21:09:03.975Z,6.70
2023-02-16T21:11:34.309Z,5.50
2023-02-16T21:14:05.039Z,4.65
2023-02-16T21:16:35.745Z,5.00
2023-02-16T21:19:20.893Z,6.43
2023-02-16T21:21:53.079Z,6.55
2023-02-16T21:24:23.224Z,5.82
2023-02-16T21:26:53.420Z,8.15
2023-02-16T21:29:23.495Z,6.00
2023-02-16T21:31:53.986Z,5.20
2023-02-16T21:34:26.760Z,5.88
2023-02-16T21:36:56.883Z,7.43
2023-02-16T21:39:47.593Z,7.05
2023-02-16T21:45:05.921Z,6.25
2023-02-16T21:47:48.470Z,6.53
2023-02-16T21:50:22.515Z,6.25
2023-02-16T21:52:52.837Z,5.25
2023-02-16T21:55:35.424Z,6.13
2023-02-16T21:58:08.128Z,6.72
2023-02-16T22:00:38.659Z,5.38
2023-02-16T22:03:09.531Z,6.72
2023-02-16T22:05:42.285Z,6.32
2023-02-16T22:08:14.352Z,7.00
2023-02-16T22:10:44.611Z,6.20
2023-02-16T22:13:15.296Z,6.20
2023-02-16T22:15:49.070Z,5.80
2023-02-16T22:18:34.264Z,5.65
2023-02-16T22:24:52.016Z,5.18
2023-02-16T22:30:28.413Z,4.78
2023-02-16T22:32:58.500Z,5.55
2023-02-16T22:35:28.772Z,5.15
2023-02-16T22:38:01.564Z,5.63
2023-02-16T22:40:31.960Z,5.93
2023-02-16T22:43:02.405Z,8.32
2023-02-16T22:45:36.600Z,7.65
2023-02-16T22:48:06.908Z,8.77
2023-02-16T22:50:37.410Z,8.60
2023-02-16T22:53:10.420Z,6.15
2023-02-16T22:55:47.983Z,6.55
2023-02-16T23:00:51.087Z,7.25
2023-02-16T23:03:22.007Z,7.38
2023-02-16T23:05:58.259Z,8.27
2023-02-16T23:08:47.697Z,9.73
2023-02-16T23:11:17.864Z,9.60
2023-02-16T23:13:54.413Z,11.43
2023-02-16T23:16:27.611Z,11.80
2023-02-16T23:19:04.993Z,10.90
2023-02-16T23:21:36.187Z,10.10
2023-02-16T23:24:09.372Z,9.45
2023-02-16T23:26:39.518Z,8.82
2023-02-16T23:29:10.113Z,8.63
2023-02-16T23:31:42.115Z,6.65
2023-02-16T23:34:12.694Z,6.47
2023-02-16T23:36:43.135Z,9.55
2023-02-16T23:39:18.164Z,6.43
2023-02-16T23:41:48.486Z,4.82
2023-02-16T23:44:19.003Z,5.57
2023-02-16T23:46:50.973Z,4.97
2023-02-16T23:49:21.127Z,4.93
2023-02-16T23:51:51.395Z,4.28
2023-02-16T23:54:24.155Z,4.50
2023-02-16T23:57:04.422Z,4.10
2023-02-16T23:59:34.574Z,3.80
